createdAt,value
2019-02-24T00:01:38.678Z,12.47
2019-02-24T00:04:07.322Z,11.93
2019-02-24T00:06:36.045Z,12.23
2019-02-24T00:09:05.792Z,12.20
2019-02-24T00:11:34.693Z,12.53
2019-02-24T00:14:03.266Z,11.70
2019-02-24T00:16:31.838Z,9.57
2019-02-24T00:19:00.418Z,10.67
2019-02-24T00:21:29.662Z,11.00
2019-02-24T00:23:58.310Z,12.23
2019-02-24T00:26:26.954Z,11.47
2019-02-24T00:28:55.561Z,12.03
2019-02-24T00:31:24.207Z,11.10
2019-02-24T00:33:52.826Z,12.10
2019-02-24T00:36:21.395Z,12.23
2019-02-24T00:38:50.035Z,10.73
2019-02-24T00:41:18.658Z,11.83
2019-02-24T00:43:47.586Z,11.90
2019-02-24T00:46:16.163Z,10.43
2019-02-24T00:48:44.746Z,11.80
2019-02-24T00:51:13.336Z,11.47
2019-02-24T00:53:41.906Z,10.73
2019-02-24T00:56:10.641Z,10.57
2019-02-24T00:58:39.213Z,11.13
2019-02-24T01:01:07.894Z,10.43
2019-02-24T01:03:36.497Z,11.70
2019-02-24T01:06:05.055Z,10.67
2019-02-24T01:08:33.702Z,9.60
2019-02-24T01:11:02.274Z,11.10
2019-02-24T01:13:30.921Z,11.40
2019-02-24T01:15:59.494Z,10.27
2019-02-24T01:18:28.089Z,10.87
2019-02-24T01:20:56.662Z,11.17
2019-02-24T01:23:25.376Z,10.53
2019-02-24T01:25:53.958Z,12.13
2019-02-24T01:28:25.326Z,11.80
2019-02-24T01:30:52.761Z,11.30
2019-02-24T01:33:21.340Z,11.53
2019-02-24T01:35:49.926Z,11.70
2019-02-24T01:38:18.499Z,11.77
2019-02-24T01:43:22.654Z,11.40
2019-02-24T01:45:51.314Z,11.47
2019-02-24T01:48:21.153Z,11.40
2019-02-24T01:50:49.871Z,12.17
2019-02-24T01:53:18.461Z,12.60
2019-02-24T01:55:47.189Z,12.40
2019-02-24T01:58:15.770Z,11.80
2019-02-24T02:00:44.342Z,12.97
2019-02-24T02:03:13.025Z,12.47
2019-02-24T02:05:41.597Z,13.03
2019-02-24T02:08:10.210Z,12.53
2019-02-24T02:10:39.053Z,12.60
2019-02-24T02:13:07.626Z,12.30
2019-02-24T02:15:36.211Z,11.37
2019-02-24T02:18:04.846Z,11.53
2019-02-24T02:20:33.446Z,11.60
2019-02-24T02:23:02.150Z,12.57
2019-02-24T02:25:30.833Z,12.03
2019-02-24T02:27:59.402Z,11.77
2019-02-24T02:30:28.064Z,11.97
2019-02-24T02:32:56.714Z,12.57
2019-02-24T02:35:25.317Z,12.10
2019-02-24T02:37:53.878Z,12.40
2019-02-24T02:40:22.520Z,12.33
2019-02-24T02:42:51.098Z,12.87
2019-02-24T02:45:19.818Z,12.27
2019-02-24T02:47:48.412Z,11.20
2019-02-24T02:50:16.967Z,11.93
2019-02-24T02:52:45.565Z,12.77
2019-02-24T02:55:14.285Z,12.20
2019-02-24T02:57:42.851Z,13.37
2019-02-24T03:00:29.558Z,13.00
2019-02-24T03:02:58.118Z,13.17
2019-02-24T03:05:26.981Z,12.27
2019-02-24T03:07:57.228Z,12.37
2019-02-24T03:10:25.811Z,12.50
2019-02-24T03:12:54.379Z,12.67
2019-02-24T03:15:22.969Z,12.80
2019-02-24T03:17:51.546Z,12.77
2019-02-24T03:20:20.250Z,13.17
2019-02-24T03:22:48.823Z,14.27
2019-02-24T03:25:17.497Z,13.00
2019-02-24T03:27:46.069Z,13.77
2019-02-24T03:30:14.643Z,13.30
2019-02-24T03:32:43.231Z,13.97
2019-02-24T03:35:11.806Z,13.30
2019-02-24T03:37:40.386Z,12.87
2019-02-24T03:40:09.128Z,12.67
2019-02-24T03:42:37.808Z,13.33
2019-02-24T03:45:09.118Z,13.60
2019-02-24T03:47:37.691Z,13.27
2019-02-24T03:50:08.312Z,12.17
2019-02-24T03:52:37.018Z,13.47
2019-02-24T03:55:05.844Z,12.30
2019-02-24T03:57:34.756Z,12.03
2019-02-24T04:00:03.802Z,12.57
2019-02-24T04:02:32.448Z,12.13
2019-02-24T04:05:01.295Z,11.70
2019-02-24T04:07:29.938Z,11.87
2019-02-24T04:09:58.506Z,11.83
2019-02-24T04:12:27.164Z,11.73
2019-02-24T04:14:55.806Z,11.17
2019-02-24T04:17:24.402Z,11.10
2019-02-24T04:19:53.037Z,10.90
2019-02-24T04:22:21.767Z,11.00
2019-02-24T04:24:50.342Z,11.20
2019-02-24T04:27:18.937Z,10.73
2019-02-24T04:29:47.506Z,10.30
2019-02-24T04:32:16.083Z,10.47
2019-02-24T04:34:44.662Z,11.03
2019-02-24T04:37:13.325Z,10.63
2019-02-24T04:39:41.939Z,9.80
2019-02-24T04:42:10.507Z,9.63
2019-02-24T04:44:39.090Z,10.23
2019-02-24T04:47:07.666Z,10.33
2019-02-24T04:49:36.305Z,9.23
2019-02-24T04:52:04.945Z,8.63
2019-02-24T04:54:33.514Z,8.13
2019-02-24T04:57:02.098Z,8.13
2019-02-24T04:59:35.033Z,7.40
2019-02-24T05:02:01.030Z,6.70
2019-02-24T05:04:29.593Z,7.10
2019-02-24T05:06:58.174Z,6.33
2019-02-24T05:09:26.810Z,6.67
2019-02-24T05:11:55.390Z,5.97
2019-02-24T05:14:23.966Z,6.20
2019-02-24T05:16:52.650Z,6.37
2019-02-24T05:19:21.218Z,6.67
2019-02-24T05:21:49.786Z,5.53
2019-02-24T05:24:18.370Z,5.20
2019-02-24T05:26:46.942Z,6.10
2019-02-24T05:29:15.523Z,5.77
2019-02-24T05:31:44.114Z,5.67
2019-02-24T05:34:12.834Z,5.03
2019-02-24T05:36:41.494Z,4.80
2019-02-24T05:39:10.072Z,5.90
2019-02-24T05:41:38.637Z,4.97
2019-02-24T05:44:07.538Z,5.33
2019-02-24T05:46:36.201Z,5.20
2019-02-24T05:49:04.868Z,5.57
2019-02-24T05:51:33.419Z,4.93
2019-02-24T05:54:02.022Z,5.23
2019-02-24T05:56:30.666Z,4.83
2019-02-24T05:58:59.369Z,5.03
2019-02-24T06:01:27.950Z,5.07
2019-02-24T06:03:56.521Z,4.93
2019-02-24T06:06:25.210Z,5.83
2019-02-24T06:08:53.809Z,5.73
2019-02-24T06:11:22.369Z,5.53
2019-02-24T06:13:52.215Z,6.00
2019-02-24T06:16:20.891Z,5.40
2019-02-24T06:18:49.582Z,6.13
2019-02-24T06:21:18.238Z,7.10
2019-02-24T06:23:46.827Z,6.83
2019-02-24T06:26:15.402Z,7.60
2019-02-24T06:28:43.966Z,7.87
2019-02-24T06:31:12.546Z,8.40
2019-02-24T06:33:41.178Z,8.77
2019-02-24T06:36:09.798Z,10.10
2019-02-24T06:38:38.372Z,10.97
2019-02-24T06:41:06.956Z,10.97
2019-02-24T06:43:35.526Z,12.13
2019-02-24T06:46:04.109Z,11.37
2019-02-24T06:48:32.682Z,12.63
2019-02-24T06:51:05.406Z,12.70
2019-02-24T06:53:33.990Z,13.50
2019-02-24T06:56:02.561Z,12.57
2019-02-24T06:58:31.219Z,13.77
2019-02-24T07:00:59.790Z,14.57
2019-02-24T07:03:28.366Z,13.87
2019-02-24T07:05:56.946Z,14.43
2019-02-24T07:08:25.600Z,13.60
2019-02-24T07:10:54.206Z,14.43
2019-02-24T07:13:22.929Z,13.10
2019-02-24T07:15:51.506Z,14.53
2019-02-24T07:18:20.074Z,14.07
2019-02-24T07:20:48.658Z,13.67
2019-02-24T07:23:17.230Z,14.70
2019-02-24T07:25:45.818Z,14.60
2019-02-24T07:28:14.391Z,14.37
2019-02-24T07:30:42.970Z,13.83
2019-02-24T07:33:12.453Z,14.97
2019-02-24T07:35:41.174Z,13.83
2019-02-24T07:38:09.741Z,13.43
2019-02-24T07:40:38.314Z,14.57
2019-02-24T07:43:06.898Z,15.57
2019-02-24T07:45:35.469Z,15.30
2019-02-24T07:48:04.058Z,15.30
2019-02-24T07:50:32.637Z,14.27
2019-02-24T07:53:01.217Z,15.03
2019-02-24T07:55:29.798Z,14.93
2019-02-24T07:57:58.414Z,14.43
2019-02-24T08:00:32.322Z,15.70
2019-02-24T08:02:57.214Z,14.80
2019-02-24T08:05:25.797Z,14.63
2019-02-24T08:07:54.374Z,15.03
2019-02-24T08:10:22.968Z,14.43
2019-02-24T08:12:51.546Z,14.63
2019-02-24T08:15:20.135Z,14.40
2019-02-24T08:17:48.787Z,14.78
2019-02-24T08:20:17.554Z,15.65
2019-02-24T08:22:46.134Z,15.13
2019-02-24T08:25:14.706Z,15.27
2019-02-24T08:27:43.295Z,15.78
2019-02-24T08:30:12.608Z,14.73
2019-02-24T08:32:41.186Z,15.83
2019-02-24T08:35:09.906Z,14.73
2019-02-24T08:37:38.490Z,14.20
2019-02-24T08:40:11.558Z,14.60
2019-02-24T08:42:40.107Z,15.00
2019-02-24T08:45:10.389Z,13.93
2019-02-24T08:47:42.729Z,13.93
2019-02-24T08:50:11.766Z,13.60
2019-02-24T08:52:41.416Z,13.50
2019-02-24T08:55:10.018Z,13.50
2019-02-24T08:57:38.681Z,14.60
2019-02-24T09:00:14.880Z,13.87
2019-02-24T09:02:43.266Z,13.93
2019-02-24T09:05:11.859Z,15.78
2019-02-24T09:07:40.617Z,14.37
2019-02-24T09:10:09.873Z,14.07
2019-02-24T09:12:38.488Z,13.90
2019-02-24T09:15:11.986Z,13.80
2019-02-24T09:17:40.694Z,14.17
2019-02-24T09:20:13.793Z,14.47
2019-02-24T09:22:42.382Z,13.80
2019-02-24T09:25:11.110Z,13.93
2019-02-24T09:27:39.685Z,14.57
2019-02-24T09:30:13.132Z,14.05
2019-02-24T09:32:41.787Z,14.37
2019-02-24T09:35:10.807Z,13.80
2019-02-24T09:37:39.454Z,13.83
2019-02-24T09:40:10.240Z,13.57
2019-02-24T09:42:38.886Z,14.07
2019-02-24T09:45:09.814Z,13.77
2019-02-24T09:47:46.361Z,14.27
2019-02-24T09:50:09.742Z,13.93
2019-02-24T09:52:38.318Z,14.27
2019-02-24T09:55:08.552Z,13.60
2019-02-24T09:57:37.275Z,15.53
2019-02-24T10:00:09.222Z,14.87
2019-02-24T10:02:37.882Z,14.43
2019-02-24T10:05:07.194Z,14.77
2019-02-24T10:07:35.784Z,13.33
2019-02-24T10:10:06.462Z,14.77
2019-02-24T10:12:35.051Z,13.83
2019-02-24T10:15:04.271Z,13.90
2019-02-24T10:17:33.027Z,12.60
2019-02-24T10:20:01.603Z,12.93
2019-02-24T10:22:30.310Z,13.83
2019-02-24T10:24:58.887Z,12.87
2019-02-24T10:27:27.466Z,13.47
2019-02-24T10:29:56.054Z,12.70
2019-02-24T10:32:24.709Z,12.27
2019-02-24T10:34:53.454Z,12.30
2019-02-24T10:37:22.031Z,12.40
2019-02-24T10:39:50.625Z,12.03
2019-02-24T10:42:19.290Z,11.53
2019-02-24T10:44:47.882Z,11.77
2019-02-24T10:47:16.464Z,11.40
2019-02-24T10:49:45.091Z,11.10
2019-02-24T10:52:13.671Z,11.17
2019-02-24T10:54:42.310Z,10.47
2019-02-24T10:57:13.013Z,10.20
2019-02-24T10:59:41.123Z,11.17
2019-02-24T11:02:09.850Z,10.50
2019-02-24T11:04:38.566Z,10.83
2019-02-24T11:07:07.162Z,11.00
2019-02-24T11:09:35.807Z,10.50
2019-02-24T11:12:04.488Z,10.73
2019-02-24T11:14:33.054Z,9.53
2019-02-24T11:17:01.702Z,11.50
2019-02-24T11:19:30.302Z,10.43
2019-02-24T11:21:58.953Z,10.40
2019-02-24T11:24:27.540Z,10.10
2019-02-24T11:26:56.114Z,10.73
2019-02-24T11:29:24.702Z,11.23
2019-02-24T11:31:53.279Z,9.60
2019-02-24T11:34:21.934Z,10.07
2019-02-24T11:36:50.512Z,11.10
2019-02-24T11:39:19.098Z,10.07
2019-02-24T11:41:47.674Z,9.80
2019-02-24T11:44:16.330Z,10.30
2019-02-24T11:46:44.910Z,10.50
2019-02-24T11:49:13.534Z,10.20
2019-02-24T11:51:42.158Z,12.13
2019-02-24T11:54:10.734Z,11.00
2019-02-24T11:56:39.321Z,10.93
2019-02-24T11:59:07.967Z,11.50
2019-02-24T12:01:36.745Z,11.73
2019-02-24T12:04:05.386Z,10.17
2019-02-24T12:06:33.960Z,11.90
2019-02-24T12:09:05.292Z,11.90
2019-02-24T12:11:32.771Z,12.23
2019-02-24T12:14:01.358Z,12.43
2019-02-24T12:16:29.919Z,12.73
2019-02-24T12:18:58.498Z,11.97
2019-02-24T12:21:27.074Z,12.33
2019-02-24T12:23:55.650Z,13.43
2019-02-24T12:26:24.239Z,12.90
2019-02-24T12:28:52.811Z,14.13
2019-02-24T12:31:21.822Z,14.17
2019-02-24T12:33:50.398Z,13.70
2019-02-24T12:36:19.194Z,14.33
2019-02-24T12:38:47.967Z,13.73
2019-02-24T12:41:16.639Z,12.93
2019-02-24T12:43:45.206Z,13.70
2019-02-24T12:46:13.782Z,14.60
2019-02-24T12:48:42.362Z,14.33
2019-02-24T12:51:10.940Z,14.20
2019-02-24T12:53:39.558Z,14.30
2019-02-24T12:56:08.266Z,14.23
2019-02-24T12:58:36.990Z,13.57
2019-02-24T13:01:05.704Z,13.93
2019-02-24T13:03:34.354Z,14.77
2019-02-24T13:06:02.995Z,15.00
2019-02-24T13:08:31.701Z,14.97
2019-02-24T13:11:00.341Z,14.17
2019-02-24T13:13:28.994Z,14.23
2019-02-24T13:15:57.582Z,14.83
2019-02-24T13:18:26.151Z,15.13
2019-02-24T13:20:54.798Z,15.47
2019-02-24T13:23:23.442Z,15.00
2019-02-24T13:25:52.018Z,15.40
2019-02-24T13:28:20.658Z,16.57
2019-02-24T13:30:49.621Z,15.63
2019-02-24T13:33:18.198Z,15.90
2019-02-24T13:35:46.781Z,15.00
2019-02-24T13:38:15.357Z,16.07
2019-02-24T13:40:45.189Z,16.67
2019-02-24T13:43:13.859Z,15.47
2019-02-24T13:45:42.434Z,16.87
2019-02-24T13:48:11.030Z,17.23
2019-02-24T13:50:39.746Z,16.67
2019-02-24T13:53:08.518Z,15.70
2019-02-24T13:55:38.779Z,16.50
2019-02-24T13:58:07.414Z,16.20
2019-02-24T14:00:36.070Z,16.87
2019-02-24T14:03:04.722Z,16.60
2019-02-24T14:05:33.371Z,16.60
2019-02-24T14:08:01.942Z,16.23
2019-02-24T14:10:30.537Z,17.27
2019-02-24T14:12:59.174Z,16.67
2019-02-24T14:15:27.902Z,15.43
2019-02-24T14:17:56.614Z,17.90
2019-02-24T14:20:25.190Z,16.27
2019-02-24T14:22:53.774Z,17.00
2019-02-24T14:25:22.347Z,16.80
2019-02-24T14:27:50.930Z,17.40
2019-02-24T14:30:19.754Z,16.40
2019-02-24T14:32:48.494Z,17.53
2019-02-24T14:35:22.256Z,17.10
2019-02-24T14:37:50.834Z,16.90
2019-02-24T14:40:19.414Z,17.73
2019-02-24T14:42:48.071Z,17.23
2019-02-24T14:45:18.307Z,15.97
2019-02-24T14:47:46.955Z,17.37
2019-02-24T14:50:15.651Z,18.10
2019-02-24T14:52:44.340Z,17.53
2019-02-24T14:55:14.927Z,17.23
2019-02-24T14:57:43.573Z,16.93
2019-02-24T15:00:17.279Z,17.77
2019-02-24T15:02:45.994Z,16.20
2019-02-24T15:05:16.714Z,17.83
2019-02-24T15:07:45.685Z,17.77
2019-02-24T15:10:22.274Z,17.90
2019-02-24T15:12:50.922Z,16.80
2019-02-24T15:15:32.863Z,18.37
2019-02-24T15:18:00.426Z,17.77
2019-02-24T15:20:29.070Z,18.50
2019-02-24T15:22:57.650Z,17.33
2019-02-24T15:25:26.377Z,17.63
2019-02-24T15:27:54.964Z,18.60
2019-02-24T15:30:33.918Z,18.20
2019-02-24T15:33:02.583Z,19.40
2019-02-24T15:35:31.246Z,19.53
2019-02-24T15:37:59.949Z,18.17
2019-02-24T15:40:28.686Z,18.63
2019-02-24T15:42:57.398Z,19.50
2019-02-24T15:45:45.322Z,19.37
2019-02-24T15:48:13.910Z,19.73
2019-02-24T15:50:42.494Z,18.37
2019-02-24T15:53:11.142Z,18.97
2019-02-24T15:55:39.729Z,19.90
2019-02-24T15:58:08.422Z,20.00
2019-02-24T16:00:37.085Z,18.40
2019-02-24T16:03:05.729Z,20.30
2019-02-24T16:05:34.318Z,19.13
2019-02-24T16:08:03.014Z,19.80
2019-02-24T16:10:31.593Z,18.67
2019-02-24T16:13:00.245Z,18.40
2019-02-24T16:15:29.559Z,18.47
2019-02-24T16:17:58.138Z,19.93
2019-02-24T16:20:29.214Z,18.93
2019-02-24T16:22:57.794Z,19.17
2019-02-24T16:25:26.366Z,18.30
2019-02-24T16:27:55.307Z,18.70
2019-02-24T16:30:23.866Z,19.23
2019-02-24T16:32:52.522Z,18.47
2019-02-24T16:35:21.177Z,18.80
2019-02-24T16:37:49.750Z,18.63
2019-02-24T16:40:20.574Z,18.57
2019-02-24T16:42:49.264Z,18.70
2019-02-24T16:45:18.091Z,19.03
2019-02-24T16:47:46.789Z,18.47
2019-02-24T16:50:23.531Z,19.70
2019-02-24T16:52:52.234Z,18.93
2019-02-24T16:55:21.850Z,18.90
2019-02-24T16:57:50.435Z,19.40
2019-02-24T17:00:27.050Z,18.70
2019-02-24T17:02:55.706Z,20.37
2019-02-24T17:05:24.274Z,19.03
2019-02-24T17:07:52.999Z,21.03
2019-02-24T17:10:23.770Z,19.40
2019-02-24T17:12:52.530Z,21.00
2019-02-24T17:15:21.166Z,20.03
2019-02-24T17:17:49.731Z,21.63
2019-02-24T17:20:22.601Z,21.23
2019-02-24T17:22:51.191Z,19.87
2019-02-24T17:25:19.851Z,20.00
2019-02-24T17:27:48.418Z,20.07
2019-02-24T17:30:17.244Z,20.53
2019-02-24T17:32:45.903Z,20.23
2019-02-24T17:35:14.722Z,20.27
2019-02-24T17:37:43.487Z,18.93
2019-02-24T17:40:19.249Z,19.50
2019-02-24T17:42:47.502Z,20.53
2019-02-24T17:45:16.224Z,20.93
2019-02-24T17:47:44.866Z,19.67
2019-02-24T17:50:16.900Z,20.10
2019-02-24T17:52:45.482Z,20.00
2019-02-24T17:55:15.322Z,20.60
2019-02-24T17:57:43.882Z,20.17
2019-02-24T18:00:28.529Z,21.23
2019-02-24T18:02:57.686Z,20.40
2019-02-24T18:05:26.263Z,21.10
2019-02-24T18:07:54.826Z,21.33
2019-02-24T18:10:23.487Z,20.80
2019-02-24T18:12:52.280Z,21.70
2019-02-24T18:15:20.898Z,21.67
2019-02-24T18:17:49.478Z,35.63
2019-02-24T18:20:20.672Z,22.73
2019-02-24T18:22:49.243Z,22.33
2019-02-24T18:25:17.833Z,24.17
2019-02-24T18:27:46.398Z,21.43
2019-02-24T18:30:26.645Z,20.10
2019-02-24T18:32:55.219Z,25.13
2019-02-24T18:35:24.034Z,24.30
2019-02-24T18:37:52.680Z,20.93
2019-02-24T18:40:21.334Z,22.93
2019-02-24T18:42:59.435Z,20.70
2019-02-24T18:45:20.202Z,20.83
2019-02-24T18:47:49.854Z,21.20
2019-02-24T18:50:19.438Z,20.57
2019-02-24T18:52:48.170Z,21.03
2019-02-24T18:55:16.815Z,19.03
2019-02-24T18:57:45.630Z,21.00
2019-02-24T19:00:19.066Z,18.10
2019-02-24T19:02:47.638Z,19.83
2019-02-24T19:05:16.396Z,18.60
2019-02-24T19:07:45.039Z,17.20
2019-02-24T19:10:23.639Z,18.20
2019-02-24T19:12:52.281Z,18.13
2019-02-24T19:15:22.735Z,16.67
2019-02-24T19:17:51.449Z,16.53
2019-02-24T19:20:21.146Z,16.73
2019-02-24T19:22:49.856Z,16.00
2019-02-24T19:25:18.806Z,15.43
2019-02-24T19:27:47.454Z,16.13
2019-02-24T19:30:19.965Z,15.17
2019-02-24T19:32:48.617Z,15.73
2019-02-24T19:35:18.362Z,15.87
2019-02-24T19:37:47.090Z,15.57
2019-02-24T19:40:19.872Z,16.07
2019-02-24T19:42:48.461Z,15.13
2019-02-24T19:45:18.671Z,15.10
2019-02-24T19:47:47.262Z,14.10
2019-02-24T19:50:17.191Z,13.67
2019-02-24T19:52:45.774Z,14.97
2019-02-24T19:55:15.598Z,16.60
2019-02-24T19:57:44.438Z,14.47
2019-02-24T20:00:24.692Z,16.13
2019-02-24T20:02:53.609Z,14.87
2019-02-24T20:05:22.322Z,17.07
2019-02-24T20:07:51.032Z,20.40
2019-02-24T20:10:24.596Z,22.40
2019-02-24T20:12:53.204Z,23.90
2019-02-24T20:15:21.842Z,19.10
2019-02-24T20:17:50.497Z,19.50
2019-02-24T20:20:19.506Z,16.10
2019-02-24T20:22:48.229Z,15.17
2019-02-24T20:25:21.926Z,19.30
2019-02-24T20:27:50.582Z,19.50
2019-02-24T20:30:27.082Z,21.40
2019-02-24T20:33:15.002Z,24.07
2019-02-24T20:35:43.570Z,20.23
2019-02-24T20:38:12.193Z,17.70
2019-02-24T20:40:40.768Z,13.63
2019-02-24T20:43:09.413Z,19.50
2019-02-24T20:45:38.006Z,14.20
2019-02-24T20:48:06.794Z,16.20
2019-02-24T20:50:35.830Z,14.80
2019-02-24T20:53:04.539Z,12.70
2019-02-24T20:55:33.122Z,12.73
2019-02-24T20:58:01.866Z,14.17
2019-02-24T21:00:36.782Z,12.43
2019-02-24T21:03:05.422Z,12.63
2019-02-24T21:05:33.998Z,12.37
2019-02-24T21:08:02.646Z,11.20
2019-02-24T21:10:31.286Z,13.27
2019-02-24T21:12:59.875Z,14.20
2019-02-24T21:15:28.507Z,14.67
2019-02-24T21:17:57.102Z,12.00
2019-02-24T21:20:30.229Z,11.67
2019-02-24T21:22:58.978Z,10.90
2019-02-24T21:25:27.618Z,16.20
2019-02-24T21:27:56.198Z,10.87
2019-02-24T21:30:25.114Z,11.30
2019-02-24T21:32:53.769Z,9.87
2019-02-24T21:35:22.403Z,10.50
2019-02-24T21:37:50.969Z,10.40
2019-02-24T21:40:20.385Z,10.23
2019-02-24T21:42:49.026Z,10.77
2019-02-24T21:45:19.957Z,10.67
2019-02-24T21:47:48.665Z,11.23
2019-02-24T21:50:18.332Z,10.07
2019-02-24T21:52:46.903Z,10.77
2019-02-24T21:55:15.718Z,10.30
2019-02-24T21:57:44.738Z,9.90
2019-02-24T22:00:18.866Z,10.10
2019-02-24T22:02:48.400Z,10.07
2019-02-24T22:05:16.971Z,10.27
2019-02-24T22:07:45.704Z,9.73
2019-02-24T22:10:15.931Z,10.87
2019-02-24T22:12:44.494Z,10.60
2019-02-24T22:15:26.234Z,10.60
2019-02-24T22:17:54.980Z,11.00
2019-02-24T22:20:23.703Z,10.80
2019-02-24T22:22:52.274Z,10.67
2019-02-24T22:25:20.860Z,9.90
2019-02-24T22:27:49.537Z,10.40
2019-02-24T22:30:23.476Z,9.07
2019-02-24T22:32:52.212Z,9.93
2019-02-24T22:35:20.793Z,9.53
2019-02-24T22:37:49.378Z,9.60
2019-02-24T22:40:18.078Z,8.47
2019-02-24T22:42:46.798Z,8.20
2019-02-24T22:45:20.499Z,8.17
2019-02-24T22:47:49.314Z,8.23
2019-02-24T22:50:18.122Z,7.80
2019-02-24T22:52:47.085Z,7.80
2019-02-24T22:55:16.812Z,7.23
2019-02-24T22:57:45.518Z,6.77
2019-02-24T23:00:47.573Z,6.87
2019-02-24T23:03:16.210Z,7.47
2019-02-24T23:05:44.865Z,7.03
2019-02-24T23:08:13.433Z,6.93
2019-02-24T23:10:42.084Z,7.13
2019-02-24T23:13:10.717Z,8.00
2019-02-24T23:15:39.366Z,7.47
2019-02-24T23:18:08.074Z,6.80
2019-02-24T23:20:36.642Z,7.83
2019-02-24T23:23:05.290Z,7.57
2019-02-24T23:25:33.858Z,6.80
2019-02-24T23:28:02.595Z,8.20
2019-02-24T23:30:31.294Z,6.70
2019-02-24T23:32:59.874Z,6.87
2019-02-24T23:35:28.447Z,7.80
2019-02-24T23:37:57.034Z,7.50
2019-02-24T23:40:25.602Z,7.53
2019-02-24T23:42:54.286Z,7.47
2019-02-24T23:45:22.855Z,7.30
2019-02-24T23:47:51.541Z,7.07
2019-02-24T23:50:20.167Z,7.90
2019-02-24T23:52:48.730Z,6.70
2019-02-24T23:55:17.446Z,7.13
2019-02-24T23:57:46.027Z,7.63
